CRP weather

Corpus Christi International Airport
Corpus Christi, Texas, United States

Public forecast

Using degrees Fahrenheit for public forecast. Weather courtesy of forecast.io.

Current aviation weather report (METAR) for Corpus Christi International Airport

Retrieved 2020/07/10 03:51 UTC (18 minutes ago):

KCRP 100351Z 14009KT 10SM FEW017 27/26 A2990 RMK AO2 SLP125 T02720261

Aviation forecast (TAF) for Corpus Christi International Airport

Retrieved 2020-07-10 00:36 UTC (4 hours ago):

TAF KCRP 092333Z 1000/1024 14020G25KT P6SM FEW030 FM100300 14015KT P6SM SCT020 FM100600 16010KT P6SM BKN012 FM101500 17010G20KT P6SM SCT025 BKN035 FM101900 14018G24KT P6SM SCT035